Time;durP1;ratioP1;P1;durP2;ratioP2;P2;SDS_P1;SDS_P2;PMS_P1;PMS_P2;Temp;Humidity;BMP_temperature;BMP_pressure;BME280_temperature;BME280_humidity;BME280_pressure;Samples;Min_cycle;Max_cycle;Signal;HPM_P1;HPM_P2
2022/07/28 00:01:53;;;;;;;3.30;1.40;;;;;;;;;;5051484;28;20410;-52
2022/07/28 00:04:19;;;;;;;2.20;1.50;;;;;;;;;;5051590;28;20398;-52
2022/07/28 00:06:45;;;;;;;1.47;1.30;;;;;;;;;;5055035;28;20404;-52
2022/07/28 00:09:11;;;;;;;1.77;1.67;;;;;;;;;;5055321;28;20468;-52
2022/07/28 00:11:37;;;;;;;5.43;1.60;;;;;;;;;;5055644;28;20401;-52
2022/07/28 00:14:03;;;;;;;1.80;1.60;;;;;;;;;;5052191;28;20429;-52
2022/07/28 00:16:29;;;;;;;1.40;1.30;;;;;;;;;;5054345;28;20946;-52
2022/07/28 00:18:55;;;;;;;1.93;1.83;;;;;;;;;;5054950;28;20468;-52
2022/07/28 00:21:21;;;;;;;1.83;1.73;;;;;;;;;;5055362;28;20404;-53
2022/07/28 00:23:47;;;;;;;4.40;1.30;;;;;;;;;;5055347;28;20400;-52
2022/07/28 00:26:13;;;;;;;1.73;1.63;;;;;;;;;;5055325;28;20379;-52
2022/07/28 00:28:39;;;;;;;1.70;1.60;;;;;;;;;;5055168;28;20398;-52
2022/07/28 00:31:05;;;;;;;1.60;1.50;;;;;;;;;;5055264;28;20403;-52
2022/07/28 00:33:31;;;;;;;2.60;1.80;;;;;;;;;;5055083;28;20474;-52
2022/07/28 00:35:57;;;;;;;2.53;1.70;;;;;;;;;;5055165;28;20447;-52
2022/07/28 00:38:23;;;;;;;4.80;1.97;;;;;;;;;;5054752;28;20469;-52
2022/07/28 00:43:34;;;;;;;1.40;1.30;;;;;;;;;;5055010;28;20393;-52
2022/07/28 00:46:00;;;;;;;2.83;1.90;;;;;;;;;;5051084;28;20412;-52
2022/07/28 00:48:26;;;;;;;2.50;1.30;;;;;;;;;;5054512;28;20391;-52
2022/07/28 00:50:52;;;;;;;2.10;1.70;;;;;;;;;;5054870;28;20813;-52
2022/07/28 00:53:18;;;;;;;1.67;1.53;;;;;;;;;;5054894;28;20411;-52
2022/07/28 00:55:44;;;;;;;4.93;1.83;;;;;;;;;;5054956;28;20907;-52
2022/07/28 00:58:10;;;;;;;2.43;1.50;;;;;;;;;;5054298;28;20470;-52
2022/07/28 01:00:36;;;;;;;1.73;1.40;;;;;;;;;;5054446;28;20396;-52
2022/07/28 01:03:02;;;;;;;2.93;1.77;;;;;;;;;;5053972;28;20404;-52
2022/07/28 01:05:35;;;;;;;2.03;1.70;;;;;;;;;;5054312;28;20397;-53
2022/07/28 01:08:09;;;;;;;3.70;2.10;;;;;;;;;;5053912;28;20429;-52
2022/07/28 01:10:54;;;;;;;5.47;1.77;;;;;;;;;;5053294;28;20384;-52
2022/07/28 01:13:28;;;;;;;1.87;1.67;;;;;;;;;;5053476;28;20851;-52
2022/07/28 01:15:57;;;;;;;4.63;1.73;;;;;;;;;;5054097;28;20463;-52
2022/07/28 01:18:25;;;;;;;1.63;1.50;;;;;;;;;;5053977;28;20462;-52
2022/07/28 01:21:14;;;;;;;2.30;1.60;;;;;;;;;;5054338;28;20470;-53
2022/07/28 01:23:40;;;;;;;5.80;1.73;;;;;;;;;;5046264;28;20423;-52
2022/07/28 01:26:09;;;;;;;6.40;1.90;;;;;;;;;;5054203;28;20403;-52
2022/07/28 01:28:38;;;;;;;2.27;2.07;;;;;;;;;;5053931;28;20968;-52
2022/07/28 01:31:06;;;;;;;1.60;1.50;;;;;;;;;;5054159;28;20411;-52
2022/07/28 01:33:36;;;;;;;1.77;1.50;;;;;;;;;;5054164;28;20421;-53
2022/07/28 01:36:06;;;;;;;2.00;1.70;;;;;;;;;;5053928;28;20398;-52
2022/07/28 01:38:33;;;;;;;2.80;1.60;;;;;;;;;;5053657;28;20487;-52
2022/07/28 01:41:00;;;;;;;3.30;1.80;;;;;;;;;;5053851;28;20450;-52
2022/07/28 01:43:28;;;;;;;1.70;1.60;;;;;;;;;;5053988;28;20407;-52
2022/07/28 01:45:55;;;;;;;1.80;1.70;;;;;;;;;;5050668;28;20431;-52
2022/07/28 01:48:23;;;;;;;2.33;1.70;;;;;;;;;;5053382;28;20436;-52
2022/07/28 01:50:50;;;;;;;2.37;1.60;;;;;;;;;;5053685;28;20439;-52
2022/07/28 01:53:17;;;;;;;2.90;1.40;;;;;;;;;;5053793;28;20474;-52
2022/07/28 01:55:44;;;;;;;4.77;1.50;;;;;;;;;;5053570;28;20408;-52
2022/07/28 01:58:13;;;;;;;2.80;1.80;;;;;;;;;;5053299;28;20949;-52
2022/07/28 02:00:41;;;;;;;5.67;1.97;;;;;;;;;;5053489;28;20813;-52
2022/07/28 02:03:09;;;;;;;1.60;1.50;;;;;;;;;;5053429;28;20403;-52
2022/07/28 02:05:36;;;;;;;2.90;1.83;;;;;;;;;;5053476;28;20438;-52
2022/07/28 02:08:02;;;;;;;4.30;1.90;;;;;;;;;;5053354;28;20414;-52
2022/07/28 02:10:29;;;;;;;5.27;1.90;;;;;;;;;;5053016;28;20409;-52
2022/07/28 02:12:56;;;;;;;6.90;1.90;;;;;;;;;;5053343;28;20485;-52
2022/07/28 02:15:22;;;;;;;2.40;1.50;;;;;;;;;;5051520;28;20450;-52
2022/07/28 02:17:49;;;;;;;2.50;1.53;;;;;;;;;;5051806;28;21108;-52
2022/07/28 02:20:16;;;;;;;4.97;1.70;;;;;;;;;;5052939;28;20398;-52
2022/07/28 02:22:42;;;;;;;1.80;1.70;;;;;;;;;;5053117;28;20477;-52
2022/07/28 02:25:08;;;;;;;1.80;1.70;;;;;;;;;;5053068;28;20903;-52
2022/07/28 02:27:36;;;;;;;1.90;1.70;;;;;;;;;;5052393;28;20451;-52
2022/07/28 02:30:05;;;;;;;2.43;1.90;;;;;;;;;;5052954;28;20975;-52
2022/07/28 02:32:49;;;;;;;3.63;2.20;;;;;;;;;;5052933;28;20917;-52
2022/07/28 02:35:35;;;;;;;1.87;1.77;;;;;;;;;;5052935;28;20881;-52
2022/07/28 02:38:04;;;;;;;1.90;1.50;;;;;;;;;;5052330;28;20958;-52
2022/07/28 02:40:35;;;;;;;2.50;1.70;;;;;;;;;;5052471;28;20484;-52
2022/07/28 02:43:01;;;;;;;3.37;1.97;;;;;;;;;;5052677;28;20408;-52
2022/07/28 02:45:28;;;;;;;1.97;1.77;;;;;;;;;;5048857;28;20430;-52
2022/07/28 02:47:56;;;;;;;3.07;2.03;;;;;;;;;;5052575;28;20431;-52
2022/07/28 02:50:24;;;;;;;2.80;1.67;;;;;;;;;;5052392;28;20410;-52
2022/07/28 02:52:52;;;;;;;1.93;1.50;;;;;;;;;;5052495;28;20442;-52
2022/07/28 02:55:18;;;;;;;3.83;2.10;;;;;;;;;;5053004;28;20773;-52
2022/07/28 02:57:45;;;;;;;2.30;1.93;;;;;;;;;;5052155;28;20463;-52
2022/07/28 03:00:12;;;;;;;8.10;2.97;;;;;;;;;;5052162;28;20394;-52
2022/07/28 03:02:40;;;;;;;3.37;1.83;;;;;;;;;;5052411;28;20401;-52
2022/07/28 03:05:06;;;;;;;2.10;1.77;;;;;;;;;;5052428;28;20820;-52
2022/07/28 03:07:35;;;;;;;3.33;2.20;;;;;;;;;;5052119;28;20449;-52
2022/07/28 03:10:02;;;;;;;2.20;1.60;;;;;;;;;;5051879;28;20528;-52
2022/07/28 03:12:28;;;;;;;3.90;1.73;;;;;;;;;;5052246;28;20425;-52
2022/07/28 03:14:54;;;;;;;3.73;1.70;;;;;;;;;;5050355;28;20429;-52
2022/07/28 03:17:21;;;;;;;4.70;2.20;;;;;;;;;;5050835;28;20466;-52
2022/07/28 03:19:47;;;;;;;2.20;2.00;;;;;;;;;;5051785;28;20414;-52
2022/07/28 03:22:13;;;;;;;3.00;1.97;;;;;;;;;;5051946;28;20459;-52
2022/07/28 03:24:41;;;;;;;3.97;2.03;;;;;;;;;;5052028;28;20398;-52
2022/07/28 03:27:11;;;;;;;2.20;1.90;;;;;;;;;;5052025;28;20394;-52
2022/07/28 03:29:38;;;;;;;3.50;2.00;;;;;;;;;;5051679;28;20402;-52
2022/07/28 03:32:04;;;;;;;6.53;2.37;;;;;;;;;;5051959;28;20390;-52
2022/07/28 03:34:31;;;;;;;4.87;1.97;;;;;;;;;;5051966;28;20736;-52
2022/07/28 03:37:00;;;;;;;1.77;1.67;;;;;;;;;;5051705;28;20402;-52
2022/07/28 03:39:27;;;;;;;3.93;2.07;;;;;;;;;;5051403;28;20406;-52
2022/07/28 03:41:54;;;;;;;3.10;2.10;;;;;;;;;;5048681;28;20445;-52
2022/07/28 03:44:21;;;;;;;4.83;2.30;;;;;;;;;;5051822;28;20448;-52
2022/07/28 03:46:47;;;;;;;6.80;2.07;;;;;;;;;;5051785;28;20393;-52
2022/07/28 03:49:13;;;;;;;3.10;2.00;;;;;;;;;;5051398;28;20413;-52
2022/07/28 03:51:39;;;;;;;5.10;2.60;;;;;;;;;;5051570;28;20456;-52
2022/07/28 03:54:05;;;;;;;9.60;1.70;;;;;;;;;;5052181;28;20417;-51
2022/07/28 03:56:31;;;;;;;2.37;2.03;;;;;;;;;;5051927;28;20401;-51
2022/07/28 03:58:57;;;;;;;7.57;1.97;;;;;;;;;;5051469;28;20465;-51
2022/07/28 04:01:23;;;;;;;4.20;2.10;;;;;;;;;;5051842;28;20427;-51
2022/07/28 04:03:49;;;;;;;3.73;2.60;;;;;;;;;;5051853;28;20401;-51
2022/07/28 04:06:15;;;;;;;1.87;1.77;;;;;;;;;;5048620;28;20452;-51
2022/07/28 04:08:41;;;;;;;2.13;1.93;;;;;;;;;;5051534;28;20979;-51
2022/07/28 04:11:07;;;;;;;4.73;2.70;;;;;;;;;;5051700;28;20489;-51
2022/07/28 04:13:35;;;;;;;5.90;2.20;;;;;;;;;;5051829;28;20402;-52
2022/07/28 04:16:01;;;;;;;2.47;2.13;;;;;;;;;;5051767;28;20476;-51
2022/07/28 04:18:27;;;;;;;3.03;2.53;;;;;;;;;;5051182;28;20548;-51
2022/07/28 04:20:54;;;;;;;2.60;2.07;;;;;;;;;;5051767;28;20402;-51
2022/07/28 04:23:21;;;;;;;10.30;2.67;;;;;;;;;;5051908;28;20757;-52
2022/07/28 04:25:47;;;;;;;15.77;2.20;;;;;;;;;;5051632;28;20402;-51
2022/07/28 04:28:14;;;;;;;2.93;2.13;;;;;;;;;;5051283;28;20865;-51
2022/07/28 04:30:40;;;;;;;6.73;1.90;;;;;;;;;;5051649;28;20435;-51
2022/07/28 04:33:06;;;;;;;3.27;1.83;;;;;;;;;;5048865;28;20462;-51
2022/07/28 04:35:33;;;;;;;2.90;2.07;;;;;;;;;;5051717;28;20404;-51
2022/07/28 04:37:59;;;;;;;3.77;2.00;;;;;;;;;;5051409;28;20477;-52
2022/07/28 04:40:26;;;;;;;3.80;2.37;;;;;;;;;;5051364;28;20429;-51
2022/07/28 04:42:52;;;;;;;2.27;2.07;;;;;;;;;;5051975;28;20434;-51
2022/07/28 04:45:18;;;;;;;6.33;3.27;;;;;;;;;;5051566;28;20881;-52
2022/07/28 04:47:44;;;;;;;5.53;2.80;;;;;;;;;;5051336;28;20419;-51
2022/07/28 04:50:14;;;;;;;3.50;2.10;;;;;;;;;;5051071;28;20393;-51
2022/07/28 04:52:40;;;;;;;6.97;2.50;;;;;;;;;;5054125;28;20405;-51
2022/07/28 04:55:06;;;;;;;5.00;2.80;;;;;;;;;;5055195;28;20435;-51
2022/07/28 04:57:32;;;;;;;5.47;2.40;;;;;;;;;;5051394;28;20467;-51
2022/07/28 05:00:02;;;;;;;2.43;2.10;;;;;;;;;;5054705;28;20434;-51
2022/07/28 05:02:28;;;;;;;3.23;2.00;;;;;;;;;;5053519;28;20464;-51
2022/07/28 05:04:54;;;;;;;2.00;1.90;;;;;;;;;;5055068;28;20809;-51
2022/07/28 05:07:20;;;;;;;7.70;2.60;;;;;;;;;;5054610;28;20441;-52
2022/07/28 05:09:46;;;;;;;4.80;2.17;;;;;;;;;;5054482;28;20471;-51
2022/07/28 05:12:12;;;;;;;3.30;2.63;;;;;;;;;;5054752;28;20416;-51
2022/07/28 05:14:39;;;;;;;3.40;2.60;;;;;;;;;;5054628;28;20460;-51
2022/07/28 05:17:05;;;;;;;3.37;2.80;;;;;;;;;;5054433;28;20409;-51
2022/07/28 05:19:31;;;;;;;3.30;2.47;;;;;;;;;;5054423;28;20489;-51
2022/07/28 05:21:57;;;;;;;6.27;2.70;;;;;;;;;;5054479;28;20402;-51
2022/07/28 05:24:22;;;;;;;6.57;2.27;;;;;;;;;;5051250;28;20427;-51
2022/07/28 05:26:48;;;;;;;8.97;3.20;;;;;;;;;;5053331;28;20911;-52
2022/07/28 05:29:14;;;;;;;5.27;2.70;;;;;;;;;;5053793;28;20421;-51
2022/07/28 05:31:40;;;;;;;4.70;3.07;;;;;;;;;;5054358;28;20401;-51
2022/07/28 05:34:06;;;;;;;4.17;2.20;;;;;;;;;;5054196;28;20829;-51
2022/07/28 05:36:33;;;;;;;5.13;3.20;;;;;;;;;;5054075;28;20499;-51
2022/07/28 05:38:59;;;;;;;3.47;3.07;;;;;;;;;;5053515;28;20461;-52
2022/07/28 05:41:25;;;;;;;3.27;3.00;;;;;;;;;;5054022;28;20914;-51
2022/07/28 05:43:51;;;;;;;3.47;2.53;;;;;;;;;;5053809;28;20470;-51
2022/07/28 05:46:17;;;;;;;4.60;2.73;;;;;;;;;;5053877;28;20393;-51
2022/07/28 05:48:43;;;;;;;3.93;2.77;;;;;;;;;;5053471;28;20837;-52
2022/07/28 05:51:09;;;;;;;4.23;3.00;;;;;;;;;;5050315;28;20488;-52
2022/07/28 05:53:35;;;;;;;5.87;3.00;;;;;;;;;;5053760;28;20405;-52
2022/07/28 05:56:01;;;;;;;3.93;2.70;;;;;;;;;;5053646;28;20374;-51
2022/07/28 05:58:27;;;;;;;4.00;2.47;;;;;;;;;;5053541;28;20476;-51
2022/07/28 06:00:53;;;;;;;4.43;2.50;;;;;;;;;;5053805;28;20395;-51
2022/07/28 06:03:19;;;;;;;4.10;2.63;;;;;;;;;;5052842;28;20850;-52
2022/07/28 06:05:45;;;;;;;6.57;3.00;;;;;;;;;;5053148;28;20726;-52
2022/07/28 06:08:12;;;;;;;2.63;2.43;;;;;;;;;;5051464;28;20470;-53
2022/07/28 06:13:22;;;;;;;5.67;2.47;;;;;;;;;;5053167;28;20398;-52
2022/07/28 06:15:50;;;;;;;7.47;2.97;;;;;;;;;;5048438;28;20428;-52
2022/07/28 06:18:16;;;;;;;5.70;2.40;;;;;;;;;;5051083;28;20475;-51
2022/07/28 06:20:42;;;;;;;4.77;2.87;;;;;;;;;;5051188;28;20403;-52
2022/07/28 06:23:08;;;;;;;5.87;3.03;;;;;;;;;;5049970;28;20511;-51
2022/07/28 06:25:34;;;;;;;2.90;2.70;;;;;;;;;;5052502;28;20916;-52
2022/07/28 06:28:06;;;;;;;3.00;2.57;;;;;;;;;;5036827;28;20794;-51
2022/07/28 06:30:33;;;;;;;3.40;2.60;;;;;;;;;;5027007;28;20888;-51
2022/07/28 06:32:59;;;;;;;3.70;2.57;;;;;;;;;;5035715;28;20397;-51
2022/07/28 06:35:25;;;;;;;6.60;2.33;;;;;;;;;;5034300;28;20426;-51
2022/07/28 06:37:51;;;;;;;3.77;2.63;;;;;;;;;;5035011;28;20462;-52
2022/07/28 06:40:20;;;;;;;4.60;2.63;;;;;;;;;;5035761;28;20422;-52
2022/07/28 06:42:48;;;;;;;3.03;2.30;;;;;;;;;;5035224;28;20392;-51
2022/07/28 06:45:16;;;;;;;4.50;2.90;;;;;;;;;;5034564;28;20372;-52
2022/07/28 06:47:42;;;;;;;10.13;2.80;;;;;;;;;;5033128;28;20418;-52
2022/07/28 06:50:08;;;;;;;3.87;2.60;;;;;;;;;;5033718;28;20421;-51
2022/07/28 06:52:35;;;;;;;9.03;2.90;;;;;;;;;;5034788;28;20380;-52
2022/07/28 06:55:02;;;;;;;3.37;2.23;;;;;;;;;;5032997;28;20383;-51
2022/07/28 06:57:28;;;;;;;5.33;2.40;;;;;;;;;;5032468;28;20519;-51
2022/07/28 06:59:58;;;;;;;2.87;2.03;;;;;;;;;;5034577;28;20508;-52
2022/07/28 07:02:24;;;;;;;3.07;2.27;;;;;;;;;;5053249;28;20426;-52
2022/07/28 07:04:56;;;;;;;2.07;1.97;;;;;;;;;;5054075;28;20377;-52
2022/07/28 07:07:22;;;;;;;3.47;2.30;;;;;;;;;;5053931;28;20387;-52
2022/07/28 07:09:48;;;;;;;3.93;2.30;;;;;;;;;;5053146;28;20716;-52
2022/07/28 07:12:14;;;;;;;4.50;2.00;;;;;;;;;;5051297;28;20926;-52
2022/07/28 07:14:40;;;;;;;3.20;2.00;;;;;;;;;;5051160;28;20373;-52
2022/07/28 07:17:06;;;;;;;14.73;2.47;;;;;;;;;;5052196;28;20917;-52
2022/07/28 07:19:32;;;;;;;3.10;2.10;;;;;;;;;;5051894;28;20402;-53
2022/07/28 07:21:58;;;;;;;5.30;1.90;;;;;;;;;;5052131;28;20382;-52
2022/07/28 07:24:24;;;;;;;4.97;2.23;;;;;;;;;;5051808;28;20386;-52
2022/07/28 07:26:50;;;;;;;8.30;2.03;;;;;;;;;;5048380;28;20464;-52
2022/07/28 07:29:17;;;;;;;2.33;2.13;;;;;;;;;;5051694;28;20498;-52
2022/07/28 07:31:43;;;;;;;5.43;2.00;;;;;;;;;;5050623;28;20498;-52
2022/07/28 07:34:09;;;;;;;4.83;1.73;;;;;;;;;;5051953;28;20459;-52
2022/07/28 07:36:35;;;;;;;2.37;2.17;;;;;;;;;;5051856;28;20408;-52
2022/07/28 07:39:01;;;;;;;4.80;1.93;;;;;;;;;;5051424;28;20492;-52
2022/07/28 07:41:27;;;;;;;2.93;2.10;;;;;;;;;;5051863;28;20487;-52
2022/07/28 07:43:53;;;;;;;2.50;1.90;;;;;;;;;;5051966;28;20890;-52
2022/07/28 07:46:19;;;;;;;4.63;1.97;;;;;;;;;;5051768;28;20404;-52
2022/07/28 07:48:45;;;;;;;2.27;1.97;;;;;;;;;;5037865;28;20528;-52
2022/07/28 07:51:11;;;;;;;1.40;1.30;;;;;;;;;;5030268;28;20400;-52
2022/07/28 07:53:37;;;;;;;2.13;1.37;;;;;;;;;;5049615;28;20391;-52
2022/07/28 07:56:03;;;;;;;1.83;1.47;;;;;;;;;;5049912;28;20372;-53
2022/07/28 07:58:29;;;;;;;5.63;1.87;;;;;;;;;;5029854;28;20556;-52
2022/07/28 08:00:55;;;;;;;3.73;2.50;;;;;;;;;;5030473;28;20434;-52
2022/07/28 08:03:21;;;;;;;5.63;2.80;;;;;;;;;;5031266;28;20940;-52
2022/07/28 08:05:48;;;;;;;2.53;1.60;;;;;;;;;;5031602;28;20415;-52
2022/07/28 08:08:14;;;;;;;9.13;1.80;;;;;;;;;;5030954;28;20468;-53
2022/07/28 08:10:40;;;;;;;5.40;2.10;;;;;;;;;;5031620;28;20409;-52
2022/07/28 08:13:07;;;;;;;10.33;2.50;;;;;;;;;;5031297;28;20419;-53
2022/07/28 08:15:33;;;;;;;1.60;1.50;;;;;;;;;;5031503;28;20437;-52
2022/07/28 08:18:00;;;;;;;1.63;1.33;;;;;;;;;;5035589;28;20551;-53
2022/07/28 08:20:26;;;;;;;1.63;1.33;;;;;;;;;;5051191;28;20397;-53
2022/07/28 08:22:54;;;;;;;3.70;2.67;;;;;;;;;;5040251;28;20501;-52
2022/07/28 08:25:20;;;;;;;5.13;1.57;;;;;;;;;;5031222;28;20425;-52
2022/07/28 08:27:46;;;;;;;1.40;1.00;;;;;;;;;;5034553;28;20458;-53
2022/07/28 08:30:17;;;;;;;3.33;1.17;;;;;;;;;;5028150;28;20424;-53
2022/07/28 08:32:43;;;;;;;3.67;2.17;;;;;;;;;;5036934;28;20410;-53
2022/07/28 08:35:10;;;;;;;2.97;1.33;;;;;;;;;;5035758;28;20410;-53
2022/07/28 08:37:38;;;;;;;3.27;1.80;;;;;;;;;;5035570;28;21114;-53
2022/07/28 08:40:05;;;;;;;2.50;2.30;;;;;;;;;;5035408;28;20450;-52
2022/07/28 08:42:38;;;;;;;4.17;2.70;;;;;;;;;;5035705;28;20790;-52
2022/07/28 08:45:05;;;;;;;4.30;1.77;;;;;;;;;;5049880;28;20424;-53
2022/07/28 08:47:32;;;;;;;1.40;1.10;;;;;;;;;;5055566;28;20955;-53
2022/07/28 08:49:58;;;;;;;2.40;1.07;;;;;;;;;;5052033;28;20410;-52
2022/07/28 08:52:24;;;;;;;10.30;1.93;;;;;;;;;;5035355;28;20402;-52
2022/07/28 08:54:52;;;;;;;1.83;1.10;;;;;;;;;;5035483;28;20433;-52
2022/07/28 08:57:20;;;;;;;3.73;1.30;;;;;;;;;;5035156;28;20422;-52
2022/07/28 08:59:48;;;;;;;1.73;1.00;;;;;;;;;;5034347;28;20417;-52
2022/07/28 09:02:14;;;;;;;3.93;1.20;;;;;;;;;;5034386;28;20414;-53
2022/07/28 09:04:41;;;;;;;3.40;1.07;;;;;;;;;;5035373;28;20755;-52
2022/07/28 09:07:07;;;;;;;2.53;1.20;;;;;;;;;;5035078;28;20417;-52
2022/07/28 09:09:33;;;;;;;4.07;1.53;;;;;;;;;;5038300;28;20993;-52
2022/07/28 09:12:02;;;;;;;7.10;1.60;;;;;;;;;;5046107;28;20429;-53
2022/07/28 09:14:28;;;;;;;1.80;1.23;;;;;;;;;;5055380;28;20409;-53
2022/07/28 09:16:54;;;;;;;1.67;1.10;;;;;;;;;;5036395;28;20430;-52
2022/07/28 09:19:20;;;;;;;2.23;1.60;;;;;;;;;;5033918;28;20489;-52
2022/07/28 09:21:46;;;;;;;1.90;0.90;;;;;;;;;;5034096;28;20508;-52
2022/07/28 09:24:31;;;;;;;1.70;1.20;;;;;;;;;;5034236;28;20398;-53
2022/07/28 09:26:59;;;;;;;1.50;0.97;;;;;;;;;;5033834;28;20418;-53
2022/07/28 09:29:25;;;;;;;2.30;1.30;;;;;;;;;;5033548;28;20426;-52
2022/07/28 09:31:51;;;;;;;2.37;1.43;;;;;;;;;;5033878;28;20476;-52
2022/07/28 09:34:17;;;;;;;3.83;1.50;;;;;;;;;;5034160;28;20173;-52
2022/07/28 09:36:43;;;;;;;1.00;0.90;;;;;;;;;;5041172;28;20433;-52
2022/07/28 09:39:09;;;;;;;3.23;1.37;;;;;;;;;;5053411;28;20460;-52
2022/07/28 09:41:48;;;;;;;3.10;1.30;;;;;;;;;;5040869;28;20898;-52
2022/07/28 09:44:18;;;;;;;5.50;1.50;;;;;;;;;;5033953;28;20398;-52
2022/07/28 09:46:44;;;;;;;2.30;0.93;;;;;;;;;;5033462;28;20418;-52
2022/07/28 09:49:10;;;;;;;5.50;1.63;;;;;;;;;;5033390;28;20418;-52
2022/07/28 09:51:37;;;;;;;1.40;1.20;;;;;;;;;;5033053;28;20440;-52
2022/07/28 09:54:07;;;;;;;1.67;1.20;;;;;;;;;;5033166;28;20425;-53
2022/07/28 09:56:34;;;;;;;1.80;1.13;;;;;;;;;;5033711;28;20407;-52
2022/07/28 09:59:02;;;;;;;1.47;1.10;;;;;;;;;;5032623;28;20493;-52
2022/07/28 10:01:28;;;;;;;3.93;1.40;;;;;;;;;;5038045;28;20429;-52
2022/07/28 10:03:55;;;;;;;3.63;1.20;;;;;;;;;;5036006;28;20410;-52
2022/07/28 10:06:29;;;;;;;2.17;1.60;;;;;;;;;;5032951;28;20422;-52
2022/07/28 10:08:56;;;;;;;10.93;1.30;;;;;;;;;;5033227;28;20414;-53
2022/07/28 10:11:25;;;;;;;2.33;1.40;;;;;;;;;;5030692;28;20791;-52
2022/07/28 10:13:52;;;;;;;1.83;1.20;;;;;;;;;;5039404;28;20434;-52
2022/07/28 10:16:18;;;;;;;3.30;1.20;;;;;;;;;;5023729;28;20420;-52
2022/07/28 10:18:46;;;;;;;1.67;1.30;;;;;;;;;;5032621;28;20457;-52
2022/07/28 10:21:13;;;;;;;1.73;1.20;;;;;;;;;;5032814;28;20402;-53
2022/07/28 10:23:40;;;;;;;5.80;1.50;;;;;;;;;;5032241;28;20780;-52
2022/07/28 10:26:09;;;;;;;2.53;1.73;;;;;;;;;;5032914;28;20425;-52
2022/07/28 10:28:36;;;;;;;1.43;1.33;;;;;;;;;;5035433;28;20980;-53
2022/07/28 10:31:04;;;;;;;4.73;1.40;;;;;;;;;;5037322;28;20418;-52
2022/07/28 10:33:31;;;;;;;3.30;1.37;;;;;;;;;;5031174;28;20452;-53
2022/07/28 10:36:00;;;;;;;4.03;1.70;;;;;;;;;;5043402;28;20461;-52
2022/07/28 10:38:33;;;;;;;2.77;1.53;;;;;;;;;;5049779;28;20873;-53
2022/07/28 10:41:02;;;;;;;1.43;1.20;;;;;;;;;;5029832;28;20483;-53
2022/07/28 10:43:29;;;;;;;3.93;1.60;;;;;;;;;;5032297;28;20425;-53
2022/07/28 10:45:55;;;;;;;3.10;1.37;;;;;;;;;;5032384;28;20402;-53
2022/07/28 10:48:21;;;;;;;1.83;1.40;;;;;;;;;;5032083;28;20446;-53
2022/07/28 10:50:48;;;;;;;2.97;1.20;;;;;;;;;;5032115;28;20417;-53
2022/07/28 10:53:23;;;;;;;5.10;1.60;;;;;;;;;;5038548;28;20456;-53
2022/07/28 10:55:52;;;;;;;4.13;1.30;;;;;;;;;;5052599;28;20405;-53
2022/07/28 10:58:36;;;;;;;1.50;1.20;;;;;;;;;;5036801;28;20461;-53
2022/07/28 11:01:02;;;;;;;4.50;1.20;;;;;;;;;;5032195;28;20469;-53
2022/07/28 11:03:42;;;;;;;1.73;1.30;;;;;;;;;;5032376;28;20403;-53
2022/07/28 11:06:27;;;;;;;1.77;1.00;;;;;;;;;;5031994;28;20417;-53
2022/07/28 11:09:13;;;;;;;2.97;1.30;;;;;;;;;;5031432;28;20496;-53
2022/07/28 11:12:14;;;;;;;1.30;1.20;;;;;;;;;;5024938;28;20484;-53
2022/07/28 11:14:40;;;;;;;3.83;1.30;;;;;;;;;;5025356;28;20902;-53
2022/07/28 11:17:06;;;;;;;3.97;1.40;;;;;;;;;;5031828;28;20417;-52
2022/07/28 11:19:44;;;;;;;3.10;1.33;;;;;;;;;;5042962;28;20468;-52
2022/07/28 11:22:23;;;;;;;1.67;1.17;;;;;;;;;;5032702;28;20638;-52
2022/07/28 11:24:59;;;;;;;3.37;1.30;;;;;;;;;;5032086;28;20398;-53
2022/07/28 11:27:48;;;;;;;3.40;1.30;;;;;;;;;;5012287;28;20449;-52
2022/07/28 11:30:27;;;;;;;1.50;1.30;;;;;;;;;;5013615;28;20403;-52
2022/07/28 11:32:56;;;;;;;2.20;1.40;;;;;;;;;;5031915;28;20412;-52
2022/07/28 11:35:23;;;;;;;1.47;1.20;;;;;;;;;;5031722;28;20414;-52
2022/07/28 11:38:01;;;;;;;3.93;1.30;;;;;;;;;;5031769;28;20486;-52
2022/07/28 11:40:30;;;;;;;1.27;1.17;;;;;;;;;;5031314;28;20417;-52
2022/07/28 11:43:15;;;;;;;1.40;1.20;;;;;;;;;;5031864;28;20406;-53
2022/07/28 11:45:41;;;;;;;5.07;1.50;;;;;;;;;;5038876;28;20701;-53
2022/07/28 11:48:25;;;;;;;3.53;1.70;;;;;;;;;;5031097;28;20445;-53
2022/07/28 11:51:03;;;;;;;2.93;1.30;;;;;;;;;;5031354;28;20402;-53
2022/07/28 11:53:32;;;;;;;1.73;1.20;;;;;;;;;;5031619;28;20749;-53
2022/07/28 11:55:58;;;;;;;2.50;1.23;;;;;;;;;;5031450;28;20497;-53
2022/07/28 11:58:25;;;;;;;2.60;1.40;;;;;;;;;;5031789;28;20465;-53
2022/07/28 12:01:05;;;;;;;2.17;1.43;;;;;;;;;;5033173;28;20414;-53
2022/07/28 12:03:32;;;;;;;3.40;1.27;;;;;;;;;;5035683;28;20443;-53
2022/07/28 12:05:59;;;;;;;1.63;1.27;;;;;;;;;;5035603;28;20457;-53
2022/07/28 12:08:25;;;;;;;3.33;1.70;;;;;;;;;;5035084;28;20441;-53
2022/07/28 12:10:51;;;;;;;2.70;1.50;;;;;;;;;;5036186;28;20856;-53
2022/07/28 12:13:24;;;;;;;5.80;1.53;;;;;;;;;;5049583;28;20465;-53
2022/07/28 12:15:50;;;;;;;3.93;1.53;;;;;;;;;;5052385;28;20414;-53
2022/07/28 12:18:16;;;;;;;2.70;1.10;;;;;;;;;;5035071;28;20835;-54
2022/07/28 12:20:46;;;;;;;2.23;1.33;;;;;;;;;;5035577;28;20397;-54
2022/07/28 12:23:12;;;;;;;2.90;1.57;;;;;;;;;;5035568;28;20401;-53
2022/07/28 12:25:46;;;;;;;1.43;1.00;;;;;;;;;;5035280;28;20402;-53
2022/07/28 12:28:15;;;;;;;2.10;1.30;;;;;;;;;;5034910;28;20437;-53
2022/07/28 12:30:42;;;;;;;4.40;1.50;;;;;;;;;;5033976;28;20494;-53
2022/07/28 12:33:21;;;;;;;2.40;1.23;;;;;;;;;;5035188;28;20489;-53
2022/07/28 12:35:49;;;;;;;1.93;1.10;;;;;;;;;;5034843;28;20401;-53
2022/07/28 12:38:15;;;;;;;1.77;1.17;;;;;;;;;;5052155;28;20471;-53
2022/07/28 12:40:42;;;;;;;1.73;1.10;;;;;;;;;;5053773;28;20416;-53
2022/07/28 12:43:08;;;;;;;1.77;1.60;;;;;;;;;;5034881;28;20418;-53
2022/07/28 12:45:43;;;;;;;6.77;1.50;;;;;;;;;;5035094;28;20398;-53
2022/07/28 12:48:09;;;;;;;3.00;1.13;;;;;;;;;;5035251;28;20432;-53
2022/07/28 12:50:39;;;;;;;1.63;1.20;;;;;;;;;;5034840;28;20413;-53
2022/07/28 12:53:06;;;;;;;1.57;1.13;;;;;;;;;;5033968;28;20441;-53
2022/07/28 12:55:33;;;;;;;1.40;1.27;;;;;;;;;;5034813;28;20410;-53
2022/07/28 12:57:59;;;;;;;1.97;1.17;;;;;;;;;;5034594;28;20524;-53
2022/07/28 13:00:27;;;;;;;6.43;1.40;;;;;;;;;;5034356;28;20476;-53
2022/07/28 13:02:55;;;;;;;5.50;1.30;;;;;;;;;;5040139;28;20464;-53
2022/07/28 13:05:26;;;;;;;1.73;1.10;;;;;;;;;;5039293;28;20847;-53
2022/07/28 13:08:02;;;;;;;11.10;2.73;;;;;;;;;;5034371;28;20429;-54
2022/07/28 13:10:29;;;;;;;1.57;1.20;;;;;;;;;;5034023;28;20467;-53
2022/07/28 13:13:05;;;;;;;2.33;1.47;;;;;;;;;;5033937;28;20485;-53
2022/07/28 13:15:31;;;;;;;3.33;1.33;;;;;;;;;;5034297;28;20418;-53
2022/07/28 13:17:57;;;;;;;2.03;1.40;;;;;;;;;;5033639;28;20995;-53
2022/07/28 13:20:24;;;;;;;2.77;1.37;;;;;;;;;;5034054;28;20925;-54
2022/07/28 13:22:51;;;;;;;2.13;1.20;;;;;;;;;;5034016;28;20987;-53
2022/07/28 13:25:17;;;;;;;2.60;1.40;;;;;;;;;;5033955;28;20395;-53
2022/07/28 13:27:44;;;;;;;3.77;1.80;;;;;;;;;;5032957;28;20513;-53
2022/07/28 13:30:10;;;;;;;1.53;1.17;;;;;;;;;;5048802;28;20426;-54
2022/07/28 13:32:37;;;;;;;1.93;1.43;;;;;;;;;;5033970;28;20402;-54
2022/07/28 13:35:04;;;;;;;2.57;1.33;;;;;;;;;;5034268;28;20407;-53
2022/07/28 13:37:30;;;;;;;8.80;1.30;;;;;;;;;;5033876;28;20480;-53
2022/07/28 13:39:56;;;;;;;1.97;1.50;;;;;;;;;;5033383;28;20430;-53
2022/07/28 13:42:22;;;;;;;3.30;1.80;;;;;;;;;;5034044;28;20445;-53
2022/07/28 13:44:48;;;;;;;2.93;1.27;;;;;;;;;;5033801;28;20402;-53
2022/07/28 13:47:14;;;;;;;3.20;1.50;;;;;;;;;;5033172;28;20421;-53
2022/07/28 13:49:40;;;;;;;4.40;1.90;;;;;;;;;;5033588;28;20513;-54
2022/07/28 13:52:07;;;;;;;2.10;1.60;;;;;;;;;;5033628;28;20438;-53
2022/07/28 13:54:33;;;;;;;3.03;1.60;;;;;;;;;;5033682;28;20806;-54
2022/07/28 13:56:59;;;;;;;2.07;1.63;;;;;;;;;;5031866;28;20528;-53
2022/07/28 13:59:25;;;;;;;4.40;1.90;;;;;;;;;;5032900;28;20560;-53
2022/07/28 14:01:51;;;;;;;1.60;1.50;;;;;;;;;;5033273;28;20977;-53
2022/07/28 14:04:18;;;;;;;3.10;1.40;;;;;;;;;;5032480;28;20410;-54
2022/07/28 14:06:44;;;;;;;1.50;1.13;;;;;;;;;;5033340;28;20425;-53
2022/07/28 14:09:10;;;;;;;3.97;1.50;;;;;;;;;;5033037;28;20429;-53
2022/07/28 14:11:37;;;;;;;1.53;1.43;;;;;;;;;;5033284;28;20765;-53
2022/07/28 14:14:03;;;;;;;1.50;1.33;;;;;;;;;;5033426;28;20406;-53
2022/07/28 14:16:30;;;;;;;1.63;1.40;;;;;;;;;;5032975;28;20422;-53
2022/07/28 14:18:56;;;;;;;2.20;1.33;;;;;;;;;;5032817;28;20494;-53
2022/07/28 14:21:22;;;;;;;2.03;1.33;;;;;;;;;;5032993;28;20453;-53
2022/07/28 14:23:48;;;;;;;2.00;1.30;;;;;;;;;;5032228;28;20955;-53
2022/07/28 14:26:14;;;;;;;5.50;1.57;;;;;;;;;;5036248;28;20490;-53
2022/07/28 14:28:40;;;;;;;2.47;1.60;;;;;;;;;;5052630;28;20425;-54
2022/07/28 14:31:06;;;;;;;5.40;1.80;;;;;;;;;;5042023;28;20179;-53
2022/07/28 14:33:33;;;;;;;3.53;1.30;;;;;;;;;;5033006;28;20775;-53
2022/07/28 14:35:59;;;;;;;3.40;1.60;;;;;;;;;;5041822;28;20449;-54
2022/07/28 14:38:25;;;;;;;1.80;1.40;;;;;;;;;;5031321;28;20968;-53
2022/07/28 14:40:51;;;;;;;2.33;1.70;;;;;;;;;;5031322;28;20937;-53
2022/07/28 14:43:17;;;;;;;3.20;1.40;;;;;;;;;;5031460;28;20432;-53
2022/07/28 14:45:43;;;;;;;1.83;1.40;;;;;;;;;;5032189;28;20497;-54
2022/07/28 14:48:09;;;;;;;1.60;1.10;;;;;;;;;;5041285;28;20552;-53
2022/07/28 14:50:35;;;;;;;3.77;1.40;;;;;;;;;;5044411;28;20430;-53
2022/07/28 14:53:01;;;;;;;5.43;1.60;;;;;;;;;;5032533;28;20465;-53